sensor_id;sensor_type;location;lat;lon;timestamp;P1;durP1;ratioP1;P2;durP2;ratioP2
37065;SDS011;22981;43.080;25.550;2022-07-21T00:02:08;4.58;;;3.10;;
37065;SDS011;22981;43.080;25.550;2022-07-21T00:04:36;4.62;;;3.10;;
37065;SDS011;22981;43.080;25.550;2022-07-21T00:07:04;7.12;;;2.77;;
37065;SDS011;22981;43.080;25.550;2022-07-21T00:09:32;5.70;;;3.08;;
37065;SDS011;22981;43.080;25.550;2022-07-21T00:12:02;3.95;;;2.77;;
37065;SDS011;22981;43.080;25.550;2022-07-21T00:14:30;6.70;;;3.42;;
37065;SDS011;22981;43.080;25.550;2022-07-21T00:16:58;4.92;;;3.17;;
37065;SDS011;22981;43.080;25.550;2022-07-21T00:19:26;7.03;;;2.85;;
37065;SDS011;22981;43.080;25.550;2022-07-21T00:21:53;5.87;;;3.58;;
37065;SDS011;22981;43.080;25.550;2022-07-21T00:24:21;6.20;;;3.30;;
37065;SDS011;22981;43.080;25.550;2022-07-21T00:26:48;3.80;;;2.87;;
37065;SDS011;22981;43.080;25.550;2022-07-21T00:29:16;5.08;;;2.75;;
37065;SDS011;22981;43.080;25.550;2022-07-21T00:31:44;3.75;;;2.87;;
37065;SDS011;22981;43.080;25.550;2022-07-21T00:34:11;2.95;;;2.70;;
37065;SDS011;22981;43.080;25.550;2022-07-21T00:36:39;5.00;;;2.98;;
37065;SDS011;22981;43.080;25.550;2022-07-21T00:39:07;4.25;;;3.10;;
37065;SDS011;22981;43.080;25.550;2022-07-21T00:41:34;4.10;;;2.62;;
37065;SDS011;22981;43.080;25.550;2022-07-21T00:44:02;4.55;;;3.00;;
37065;SDS011;22981;43.080;25.550;2022-07-21T00:46:29;3.10;;;2.80;;
37065;SDS011;22981;43.080;25.550;2022-07-21T00:48:57;6.92;;;3.33;;
37065;SDS011;22981;43.080;25.550;2022-07-21T00:51:25;6.22;;;3.17;;
37065;SDS011;22981;43.080;25.550;2022-07-21T00:53:52;4.28;;;2.90;;
37065;SDS011;22981;43.080;25.550;2022-07-21T00:56:20;6.03;;;3.45;;
37065;SDS011;22981;43.080;25.550;2022-07-21T00:58:48;4.17;;;2.95;;
37065;SDS011;22981;43.080;25.550;2022-07-21T01:01:16;7.62;;;3.15;;
37065;SDS011;22981;43.080;25.550;2022-07-21T01:03:43;5.58;;;3.55;;
37065;SDS011;22981;43.080;25.550;2022-07-21T01:06:11;4.95;;;3.77;;
37065;SDS011;22981;43.080;25.550;2022-07-21T01:08:38;4.90;;;3.50;;
37065;SDS011;22981;43.080;25.550;2022-07-21T01:11:06;4.83;;;3.02;;
37065;SDS011;22981;43.080;25.550;2022-07-21T01:13:34;3.75;;;3.05;;
37065;SDS011;22981;43.080;25.550;2022-07-21T01:16:04;6.15;;;3.27;;
37065;SDS011;22981;43.080;25.550;2022-07-21T01:18:32;3.30;;;3.00;;
37065;SDS011;22981;43.080;25.550;2022-07-21T01:21:02;4.00;;;3.17;;
37065;SDS011;22981;43.080;25.550;2022-07-21T01:23:30;4.87;;;3.20;;
37065;SDS011;22981;43.080;25.550;2022-07-21T01:25:59;3.50;;;3.02;;
37065;SDS011;22981;43.080;25.550;2022-07-21T01:28:26;5.10;;;3.45;;
37065;SDS011;22981;43.080;25.550;2022-07-21T01:30:54;5.25;;;4.10;;
37065;SDS011;22981;43.080;25.550;2022-07-21T01:33:22;5.15;;;4.15;;
37065;SDS011;22981;43.080;25.550;2022-07-21T01:35:49;10.48;;;3.92;;
37065;SDS011;22981;43.080;25.550;2022-07-21T01:38:17;9.93;;;4.67;;
37065;SDS011;22981;43.080;25.550;2022-07-21T01:41:02;5.67;;;3.42;;
37065;SDS011;22981;43.080;25.550;2022-07-21T01:43:48;6.10;;;3.87;;
37065;SDS011;22981;43.080;25.550;2022-07-21T01:46:15;4.83;;;3.47;;
37065;SDS011;22981;43.080;25.550;2022-07-21T01:48:43;6.40;;;4.20;;
37065;SDS011;22981;43.080;25.550;2022-07-21T01:51:11;6.08;;;5.15;;
37065;SDS011;22981;43.080;25.550;2022-07-21T01:53:39;5.85;;;4.50;;
37065;SDS011;22981;43.080;25.550;2022-07-21T01:56:07;9.20;;;4.90;;
37065;SDS011;22981;43.080;25.550;2022-07-21T01:58:35;6.45;;;4.33;;
37065;SDS011;22981;43.080;25.550;2022-07-21T02:01:02;6.90;;;4.83;;
37065;SDS011;22981;43.080;25.550;2022-07-21T02:03:30;5.75;;;5.03;;
37065;SDS011;22981;43.080;25.550;2022-07-21T02:06:06;7.60;;;4.80;;
37065;SDS011;22981;43.080;25.550;2022-07-21T02:08:31;7.75;;;5.15;;
37065;SDS011;22981;43.080;25.550;2022-07-21T02:10:59;6.85;;;4.87;;
37065;SDS011;22981;43.080;25.550;2022-07-21T02:13:26;5.83;;;5.12;;
37065;SDS011;22981;43.080;25.550;2022-07-21T02:15:54;9.33;;;5.53;;
37065;SDS011;22981;43.080;25.550;2022-07-21T02:18:22;6.00;;;5.05;;
37065;SDS011;22981;43.080;25.550;2022-07-21T02:20:50;10.13;;;5.47;;
37065;SDS011;22981;43.080;25.550;2022-07-21T02:23:17;6.08;;;5.30;;
37065;SDS011;22981;43.080;25.550;2022-07-21T02:25:45;7.78;;;5.15;;
37065;SDS011;22981;43.080;25.550;2022-07-21T02:28:14;6.87;;;4.72;;
37065;SDS011;22981;43.080;25.550;2022-07-21T02:30:41;5.75;;;5.10;;
37065;SDS011;22981;43.080;25.550;2022-07-21T02:33:09;7.53;;;5.08;;
37065;SDS011;22981;43.080;25.550;2022-07-21T02:35:36;6.50;;;5.17;;
37065;SDS011;22981;43.080;25.550;2022-07-21T02:38:04;8.45;;;5.60;;
37065;SDS011;22981;43.080;25.550;2022-07-21T02:40:33;7.03;;;4.90;;
37065;SDS011;22981;43.080;25.550;2022-07-21T02:43:00;6.55;;;5.78;;
37065;SDS011;22981;43.080;25.550;2022-07-21T02:45:28;9.38;;;6.00;;
37065;SDS011;22981;43.080;25.550;2022-07-21T02:48:03;7.95;;;5.60;;
37065;SDS011;22981;43.080;25.550;2022-07-21T02:50:33;6.42;;;5.50;;
37065;SDS011;22981;43.080;25.550;2022-07-21T02:53:03;6.53;;;5.00;;
37065;SDS011;22981;43.080;25.550;2022-07-21T02:55:33;9.13;;;5.30;;
37065;SDS011;22981;43.080;25.550;2022-07-21T02:58:04;10.93;;;5.25;;
37065;SDS011;22981;43.080;25.550;2022-07-21T03:00:53;5.58;;;5.08;;
37065;SDS011;22981;43.080;25.550;2022-07-21T03:03:24;6.37;;;5.10;;
37065;SDS011;22981;43.080;25.550;2022-07-21T03:05:53;10.38;;;4.55;;
37065;SDS011;22981;43.080;25.550;2022-07-21T03:08:21;9.35;;;4.70;;
37065;SDS011;22981;43.080;25.550;2022-07-21T03:10:49;4.97;;;4.20;;
37065;SDS011;22981;43.080;25.550;2022-07-21T03:13:17;10.20;;;4.90;;
37065;SDS011;22981;43.080;25.550;2022-07-21T03:15:45;5.30;;;4.45;;
37065;SDS011;22981;43.080;25.550;2022-07-21T03:18:13;6.10;;;4.40;;
37065;SDS011;22981;43.080;25.550;2022-07-21T03:20:41;6.92;;;4.25;;
37065;SDS011;22981;43.080;25.550;2022-07-21T03:23:10;6.30;;;4.67;;
37065;SDS011;22981;43.080;25.550;2022-07-21T03:25:38;8.53;;;4.95;;
37065;SDS011;22981;43.080;25.550;2022-07-21T03:28:05;8.78;;;4.80;;
37065;SDS011;22981;43.080;25.550;2022-07-21T03:30:33;6.15;;;4.83;;
37065;SDS011;22981;43.080;25.550;2022-07-21T03:33:01;6.62;;;4.45;;
37065;SDS011;22981;43.080;25.550;2022-07-21T03:35:29;5.55;;;4.85;;
37065;SDS011;22981;43.080;25.550;2022-07-21T03:37:58;5.78;;;5.10;;
37065;SDS011;22981;43.080;25.550;2022-07-21T03:40:32;6.75;;;5.25;;
37065;SDS011;22981;43.080;25.550;2022-07-21T03:42:57;9.00;;;5.42;;
37065;SDS011;22981;43.080;25.550;2022-07-21T03:45:26;13.50;;;5.67;;
37065;SDS011;22981;43.080;25.550;2022-07-21T03:47:56;8.63;;;5.08;;
37065;SDS011;22981;43.080;25.550;2022-07-21T03:50:25;10.10;;;5.45;;
37065;SDS011;22981;43.080;25.550;2022-07-21T03:52:53;8.80;;;5.55;;
37065;SDS011;22981;43.080;25.550;2022-07-21T03:55:21;11.43;;;5.12;;
37065;SDS011;22981;43.080;25.550;2022-07-21T03:58:02;9.23;;;5.58;;
37065;SDS011;22981;43.080;25.550;2022-07-21T04:00:30;9.05;;;5.45;;
37065;SDS011;22981;43.080;25.550;2022-07-21T04:03:02;7.05;;;5.00;;
37065;SDS011;22981;43.080;25.550;2022-07-21T04:05:30;6.33;;;5.15;;
37065;SDS011;22981;43.080;25.550;2022-07-21T04:07:59;7.75;;;6.12;;
37065;SDS011;22981;43.080;25.550;2022-07-21T04:10:28;8.15;;;6.58;;
37065;SDS011;22981;43.080;25.550;2022-07-21T04:12:58;9.38;;;6.70;;
37065;SDS011;22981;43.080;25.550;2022-07-21T04:15:27;10.60;;;6.35;;
37065;SDS011;22981;43.080;25.550;2022-07-21T04:17:55;11.68;;;6.95;;
37065;SDS011;22981;43.080;25.550;2022-07-21T04:20:23;13.25;;;7.10;;
37065;SDS011;22981;43.080;25.550;2022-07-21T04:22:52;9.13;;;7.37;;
37065;SDS011;22981;43.080;25.550;2022-07-21T04:25:20;7.85;;;6.67;;
37065;SDS011;22981;43.080;25.550;2022-07-21T04:27:48;9.83;;;7.60;;
37065;SDS011;22981;43.080;25.550;2022-07-21T04:30:18;11.25;;;6.90;;
37065;SDS011;22981;43.080;25.550;2022-07-21T04:32:47;12.45;;;8.53;;
37065;SDS011;22981;43.080;25.550;2022-07-21T04:35:15;18.87;;;8.10;;
37065;SDS011;22981;43.080;25.550;2022-07-21T04:37:43;9.00;;;7.75;;
37065;SDS011;22981;43.080;25.550;2022-07-21T04:40:12;12.47;;;8.38;;
37065;SDS011;22981;43.080;25.550;2022-07-21T04:42:40;10.55;;;7.90;;
37065;SDS011;22981;43.080;25.550;2022-07-21T04:45:09;10.03;;;7.67;;
37065;SDS011;22981;43.080;25.550;2022-07-21T04:47:48;8.63;;;7.53;;
37065;SDS011;22981;43.080;25.550;2022-07-21T04:50:19;14.10;;;8.25;;
37065;SDS011;22981;43.080;25.550;2022-07-21T04:52:48;7.95;;;7.15;;
37065;SDS011;22981;43.080;25.550;2022-07-21T04:55:16;8.08;;;6.42;;
37065;SDS011;22981;43.080;25.550;2022-07-21T04:57:46;14.70;;;5.78;;
37065;SDS011;22981;43.080;25.550;2022-07-21T05:00:23;7.15;;;5.75;;
37065;SDS011;22981;43.080;25.550;2022-07-21T05:02:45;7.25;;;5.20;;
37065;SDS011;22981;43.080;25.550;2022-07-21T05:05:14;7.72;;;6.00;;
37065;SDS011;22981;43.080;25.550;2022-07-21T05:07:41;8.18;;;5.53;;
37065;SDS011;22981;43.080;25.550;2022-07-21T05:10:10;8.83;;;5.17;;
37065;SDS011;22981;43.080;25.550;2022-07-21T05:12:39;8.18;;;4.80;;
37065;SDS011;22981;43.080;25.550;2022-07-21T05:15:07;7.05;;;4.65;;
37065;SDS011;22981;43.080;25.550;2022-07-21T05:17:37;11.40;;;5.15;;
37065;SDS011;22981;43.080;25.550;2022-07-21T05:20:05;8.20;;;5.47;;
37065;SDS011;22981;43.080;25.550;2022-07-21T05:22:34;9.05;;;6.08;;
37065;SDS011;22981;43.080;25.550;2022-07-21T05:25:02;7.62;;;5.42;;
37065;SDS011;22981;43.080;25.550;2022-07-21T05:27:30;10.68;;;4.83;;
37065;SDS011;22981;43.080;25.550;2022-07-21T05:29:58;7.50;;;5.03;;
37065;SDS011;22981;43.080;25.550;2022-07-21T05:32:25;6.70;;;4.50;;
37065;SDS011;22981;43.080;25.550;2022-07-21T05:34:53;5.95;;;4.08;;
37065;SDS011;22981;43.080;25.550;2022-07-21T05:37:20;10.45;;;3.30;;
37065;SDS011;22981;43.080;25.550;2022-07-21T05:39:48;6.12;;;3.60;;
37065;SDS011;22981;43.080;25.550;2022-07-21T05:42:16;7.90;;;3.65;;
37065;SDS011;22981;43.080;25.550;2022-07-21T05:44:43;7.20;;;4.17;;
37065;SDS011;22981;43.080;25.550;2022-07-21T05:47:11;6.60;;;3.98;;
37065;SDS011;22981;43.080;25.550;2022-07-21T05:49:38;9.00;;;4.30;;
37065;SDS011;22981;43.080;25.550;2022-07-21T05:52:06;6.53;;;4.33;;
37065;SDS011;22981;43.080;25.550;2022-07-21T05:54:33;10.38;;;4.55;;
37065;SDS011;22981;43.080;25.550;2022-07-21T05:57:01;7.20;;;4.58;;
37065;SDS011;22981;43.080;25.550;2022-07-21T05:59:29;8.65;;;4.60;;
37065;SDS011;22981;43.080;25.550;2022-07-21T06:01:56;13.55;;;4.45;;
37065;SDS011;22981;43.080;25.550;2022-07-21T06:04:24;8.60;;;4.65;;
37065;SDS011;22981;43.080;25.550;2022-07-21T06:06:51;6.67;;;4.15;;
37065;SDS011;22981;43.080;25.550;2022-07-21T06:09:19;8.93;;;3.70;;
37065;SDS011;22981;43.080;25.550;2022-07-21T06:11:47;8.70;;;3.62;;
37065;SDS011;22981;43.080;25.550;2022-07-21T06:14:15;6.12;;;3.37;;
37065;SDS011;22981;43.080;25.550;2022-07-21T06:16:42;6.00;;;2.95;;
37065;SDS011;22981;43.080;25.550;2022-07-21T06:19:10;4.67;;;3.40;;
37065;SDS011;22981;43.080;25.550;2022-07-21T06:21:37;5.22;;;2.37;;
37065;SDS011;22981;43.080;25.550;2022-07-21T06:24:07;7.78;;;3.00;;
37065;SDS011;22981;43.080;25.550;2022-07-21T06:26:35;7.87;;;2.55;;
37065;SDS011;22981;43.080;25.550;2022-07-21T06:29:04;6.30;;;2.70;;
37065;SDS011;22981;43.080;25.550;2022-07-21T06:31:32;13.72;;;3.70;;
37065;SDS011;22981;43.080;25.550;2022-07-21T06:34:00;7.58;;;3.20;;
37065;SDS011;22981;43.080;25.550;2022-07-21T06:36:27;6.83;;;2.85;;
37065;SDS011;22981;43.080;25.550;2022-07-21T06:38:55;9.63;;;3.00;;
37065;SDS011;22981;43.080;25.550;2022-07-21T06:41:23;5.28;;;2.90;;
37065;SDS011;22981;43.080;25.550;2022-07-21T06:43:50;5.60;;;2.77;;
37065;SDS011;22981;43.080;25.550;2022-07-21T06:46:18;9.25;;;2.52;;
37065;SDS011;22981;43.080;25.550;2022-07-21T06:48:45;3.87;;;2.35;;
37065;SDS011;22981;43.080;25.550;2022-07-21T06:51:13;5.40;;;2.42;;
37065;SDS011;22981;43.080;25.550;2022-07-21T06:53:41;5.55;;;2.33;;
37065;SDS011;22981;43.080;25.550;2022-07-21T06:56:08;4.40;;;2.25;;
37065;SDS011;22981;43.080;25.550;2022-07-21T06:58:36;4.85;;;2.35;;
37065;SDS011;22981;43.080;25.550;2022-07-21T07:01:04;2.20;;;2.00;;
37065;SDS011;22981;43.080;25.550;2022-07-21T07:03:32;4.72;;;2.40;;
37065;SDS011;22981;43.080;25.550;2022-07-21T07:05:59;6.90;;;2.52;;
37065;SDS011;22981;43.080;25.550;2022-07-21T07:08:27;11.43;;;3.10;;
37065;SDS011;22981;43.080;25.550;2022-07-21T07:10:55;7.55;;;2.58;;
37065;SDS011;22981;43.080;25.550;2022-07-21T07:13:22;4.53;;;2.40;;
37065;SDS011;22981;43.080;25.550;2022-07-21T07:15:50;4.47;;;2.67;;
37065;SDS011;22981;43.080;25.550;2022-07-21T07:18:17;7.60;;;2.40;;
37065;SDS011;22981;43.080;25.550;2022-07-21T07:20:47;11.73;;;2.80;;
37065;SDS011;22981;43.080;25.550;2022-07-21T07:23:14;7.12;;;2.47;;
37065;SDS011;22981;43.080;25.550;2022-07-21T07:25:42;7.67;;;2.60;;
37065;SDS011;22981;43.080;25.550;2022-07-21T07:28:10;8.65;;;2.50;;
37065;SDS011;22981;43.080;25.550;2022-07-21T07:30:37;3.55;;;2.50;;
37065;SDS011;22981;43.080;25.550;2022-07-21T07:33:05;7.10;;;2.67;;
37065;SDS011;22981;43.080;25.550;2022-07-21T07:35:33;3.15;;;2.37;;
37065;SDS011;22981;43.080;25.550;2022-07-21T07:38:01;7.72;;;2.60;;
37065;SDS011;22981;43.080;25.550;2022-07-21T07:40:29;6.05;;;2.60;;
37065;SDS011;22981;43.080;25.550;2022-07-21T07:42:56;5.00;;;2.37;;
37065;SDS011;22981;43.080;25.550;2022-07-21T07:45:24;4.75;;;2.60;;
37065;SDS011;22981;43.080;25.550;2022-07-21T07:47:53;2.80;;;2.33;;
37065;SDS011;22981;43.080;25.550;2022-07-21T07:50:21;7.42;;;2.50;;
37065;SDS011;22981;43.080;25.550;2022-07-21T07:52:48;5.87;;;2.60;;
37065;SDS011;22981;43.080;25.550;2022-07-21T07:55:16;4.60;;;2.80;;
37065;SDS011;22981;43.080;25.550;2022-07-21T07:57:43;7.72;;;2.37;;
37065;SDS011;22981;43.080;25.550;2022-07-21T08:00:12;5.60;;;2.90;;
37065;SDS011;22981;43.080;25.550;2022-07-21T08:02:42;6.75;;;2.72;;
37065;SDS011;22981;43.080;25.550;2022-07-21T08:05:11;7.10;;;2.90;;
37065;SDS011;22981;43.080;25.550;2022-07-21T08:07:39;3.72;;;2.47;;
37065;SDS011;22981;43.080;25.550;2022-07-21T08:10:07;4.22;;;2.42;;
37065;SDS011;22981;43.080;25.550;2022-07-21T08:12:37;3.67;;;2.20;;
37065;SDS011;22981;43.080;25.550;2022-07-21T08:15:06;5.12;;;2.75;;
37065;SDS011;22981;43.080;25.550;2022-07-21T08:17:34;5.12;;;2.55;;
37065;SDS011;22981;43.080;25.550;2022-07-21T08:20:03;4.97;;;2.62;;
37065;SDS011;22981;43.080;25.550;2022-07-21T08:22:31;3.55;;;2.70;;
37065;SDS011;22981;43.080;25.550;2022-07-21T08:24:59;3.67;;;2.42;;
37065;SDS011;22981;43.080;25.550;2022-07-21T08:27:26;4.55;;;2.60;;
37065;SDS011;22981;43.080;25.550;2022-07-21T08:29:54;3.50;;;2.37;;
37065;SDS011;22981;43.080;25.550;2022-07-21T08:32:22;4.50;;;2.60;;
37065;SDS011;22981;43.080;25.550;2022-07-21T08:34:49;3.77;;;2.77;;
37065;SDS011;22981;43.080;25.550;2022-07-21T08:37:18;4.35;;;2.35;;
37065;SDS011;22981;43.080;25.550;2022-07-21T08:39:46;7.97;;;2.90;;
37065;SDS011;22981;43.080;25.550;2022-07-21T08:42:14;3.47;;;2.40;;
37065;SDS011;22981;43.080;25.550;2022-07-21T08:44:42;7.20;;;2.80;;
37065;SDS011;22981;43.080;25.550;2022-07-21T08:47:10;4.20;;;2.65;;
37065;SDS011;22981;43.080;25.550;2022-07-21T08:49:37;5.12;;;2.70;;
37065;SDS011;22981;43.080;25.550;2022-07-21T08:52:06;8.48;;;3.12;;
37065;SDS011;22981;43.080;25.550;2022-07-21T08:54:33;7.20;;;2.55;;
37065;SDS011;22981;43.080;25.550;2022-07-21T08:57:01;6.17;;;2.40;;
37065;SDS011;22981;43.080;25.550;2022-07-21T08:59:29;2.90;;;2.60;;
37065;SDS011;22981;43.080;25.550;2022-07-21T09:01:56;3.67;;;2.42;;
37065;SDS011;22981;43.080;25.550;2022-07-21T09:04:29;3.65;;;2.47;;
37065;SDS011;22981;43.080;25.550;2022-07-21T09:06:58;4.10;;;2.83;;
37065;SDS011;22981;43.080;25.550;2022-07-21T09:09:29;5.45;;;2.45;;
37065;SDS011;22981;43.080;25.550;2022-07-21T09:11:58;5.55;;;2.45;;
37065;SDS011;22981;43.080;25.550;2022-07-21T09:14:33;3.83;;;2.42;;
37065;SDS011;22981;43.080;25.550;2022-07-21T09:19:32;7.55;;;2.65;;
37065;SDS011;22981;43.080;25.550;2022-07-21T09:21:58;3.22;;;2.40;;
37065;SDS011;22981;43.080;25.550;2022-07-21T09:24:27;7.92;;;2.70;;
37065;SDS011;22981;43.080;25.550;2022-07-21T09:27:08;6.70;;;2.20;;
37065;SDS011;22981;43.080;25.550;2022-07-21T09:34:44;4.80;;;2.55;;
37065;SDS011;22981;43.080;25.550;2022-07-21T09:37:14;3.70;;;2.40;;
37065;SDS011;22981;43.080;25.550;2022-07-21T09:39:49;2.85;;;2.45;;
37065;SDS011;22981;43.080;25.550;2022-07-21T09:42:23;4.58;;;2.40;;
37065;SDS011;22981;43.080;25.550;2022-07-21T09:44:56;4.03;;;2.60;;
37065;SDS011;22981;43.080;25.550;2022-07-21T09:47:26;4.08;;;2.42;;
37065;SDS011;22981;43.080;25.550;2022-07-21T09:49:56;3.33;;;2.40;;
37065;SDS011;22981;43.080;25.550;2022-07-21T09:52:32;4.55;;;2.17;;
37065;SDS011;22981;43.080;25.550;2022-07-21T09:54:58;7.08;;;2.50;;
37065;SDS011;22981;43.080;25.550;2022-07-21T09:57:28;7.90;;;2.52;;
37065;SDS011;22981;43.080;25.550;2022-07-21T09:59:56;5.67;;;2.52;;
37065;SDS011;22981;43.080;25.550;2022-07-21T10:02:30;6.05;;;2.47;;
37065;SDS011;22981;43.080;25.550;2022-07-21T10:07:28;6.75;;;2.72;;
37065;SDS011;22981;43.080;25.550;2022-07-21T10:09:56;6.95;;;2.58;;
37065;SDS011;22981;43.080;25.550;2022-07-21T10:12:26;4.30;;;2.40;;
37065;SDS011;22981;43.080;25.550;2022-07-21T10:14:54;5.45;;;2.77;;
37065;SDS011;22981;43.080;25.550;2022-07-21T10:17:22;4.65;;;2.37;;
37065;SDS011;22981;43.080;25.550;2022-07-21T10:20:04;4.62;;;2.30;;
37065;SDS011;22981;43.080;25.550;2022-07-21T10:22:41;4.92;;;2.70;;
37065;SDS011;22981;43.080;25.550;2022-07-21T10:25:15;17.98;;;2.80;;
37065;SDS011;22981;43.080;25.550;2022-07-21T10:30:41;4.42;;;2.35;;
37065;SDS011;22981;43.080;25.550;2022-07-21T10:33:18;28.00;;;3.35;;
37065;SDS011;22981;43.080;25.550;2022-07-21T10:35:48;6.53;;;2.50;;
37065;SDS011;22981;43.080;25.550;2022-07-21T10:38:26;9.03;;;2.40;;
37065;SDS011;22981;43.080;25.550;2022-07-21T10:40:57;6.67;;;2.40;;
37065;SDS011;22981;43.080;25.550;2022-07-21T10:45:58;8.73;;;2.35;;
37065;SDS011;22981;43.080;25.550;2022-07-21T10:51:10;5.60;;;2.15;;
37065;SDS011;22981;43.080;25.550;2022-07-21T10:53:40;6.00;;;2.05;;
37065;SDS011;22981;43.080;25.550;2022-07-21T10:56:24;5.62;;;2.10;;
37065;SDS011;22981;43.080;25.550;2022-07-21T10:58:55;5.30;;;2.45;;
37065;SDS011;22981;43.080;25.550;2022-07-21T11:01:23;40.17;;;3.87;;
37065;SDS011;22981;43.080;25.550;2022-07-21T11:06:37;6.03;;;2.33;;
37065;SDS011;22981;43.080;25.550;2022-07-21T11:09:10;33.88;;;4.25;;
37065;SDS011;22981;43.080;25.550;2022-07-21T11:12:01;4.10;;;2.22;;
37065;SDS011;22981;43.080;25.550;2022-07-21T11:14:39;3.17;;;2.20;;
37065;SDS011;22981;43.080;25.550;2022-07-21T11:17:12;16.45;;;2.70;;
37065;SDS011;22981;43.080;25.550;2022-07-21T11:19:47;6.87;;;2.37;;
37065;SDS011;22981;43.080;25.550;2022-07-21T11:22:20;8.25;;;2.05;;
37065;SDS011;22981;43.080;25.550;2022-07-21T11:24:55;4.92;;;2.10;;
37065;SDS011;22981;43.080;25.550;2022-07-21T11:27:29;5.78;;;2.58;;
37065;SDS011;22981;43.080;25.550;2022-07-21T11:29:59;13.93;;;2.70;;
37065;SDS011;22981;43.080;25.550;2022-07-21T11:32:28;5.45;;;2.10;;
37065;SDS011;22981;43.080;25.550;2022-07-21T11:34:56;8.15;;;2.10;;
37065;SDS011;22981;43.080;25.550;2022-07-21T11:37:35;5.37;;;2.30;;
37065;SDS011;22981;43.080;25.550;2022-07-21T11:39:59;3.92;;;2.10;;
37065;SDS011;22981;43.080;25.550;2022-07-21T11:42:28;3.62;;;2.52;;
37065;SDS011;22981;43.080;25.550;2022-07-21T11:44:56;6.20;;;2.67;;
37065;SDS011;22981;43.080;25.550;2022-07-21T11:47:24;3.58;;;2.30;;
37065;SDS011;22981;43.080;25.550;2022-07-21T11:49:55;4.50;;;2.17;;
37065;SDS011;22981;43.080;25.550;2022-07-21T11:54:53;3.83;;;2.47;;
37065;SDS011;22981;43.080;25.550;2022-07-21T11:57:22;2.42;;;2.22;;
37065;SDS011;22981;43.080;25.550;2022-07-21T11:59:51;4.35;;;2.37;;
37065;SDS011;22981;43.080;25.550;2022-07-21T12:02:21;3.42;;;2.40;;
37065;SDS011;22981;43.080;25.550;2022-07-21T12:04:53;3.80;;;2.05;;
37065;SDS011;22981;43.080;25.550;2022-07-21T12:07:39;6.37;;;2.50;;
37065;SDS011;22981;43.080;25.550;2022-07-21T12:12:40;4.40;;;2.33;;
37065;SDS011;22981;43.080;25.550;2022-07-21T12:15:10;6.80;;;2.70;;
37065;SDS011;22981;43.080;25.550;2022-07-21T12:17:41;18.25;;;3.12;;
37065;SDS011;22981;43.080;25.550;2022-07-21T12:20:35;62.43;;;4.78;;
37065;SDS011;22981;43.080;25.550;2022-07-21T12:23:20;5.90;;;2.30;;
37065;SDS011;22981;43.080;25.550;2022-07-21T12:25:53;4.72;;;2.45;;
37065;SDS011;22981;43.080;25.550;2022-07-21T12:28:40;3.83;;;2.50;;
37065;SDS011;22981;43.080;25.550;2022-07-21T12:31:10;15.68;;;3.72;;
37065;SDS011;22981;43.080;25.550;2022-07-21T12:33:40;10.13;;;2.55;;
37065;SDS011;22981;43.080;25.550;2022-07-21T12:36:08;8.75;;;2.85;;
37065;SDS011;22981;43.080;25.550;2022-07-21T12:38:37;9.53;;;2.85;;
37065;SDS011;22981;43.080;25.550;2022-07-21T12:41:18;4.97;;;2.90;;
37065;SDS011;22981;43.080;25.550;2022-07-21T12:43:52;11.57;;;2.62;;
37065;SDS011;22981;43.080;25.550;2022-07-21T12:46:28;6.30;;;2.15;;
37065;SDS011;22981;43.080;25.550;2022-07-21T12:49:09;69.67;;;6.05;;
37065;SDS011;22981;43.080;25.550;2022-07-21T12:51:34;21.15;;;3.40;;
37065;SDS011;22981;43.080;25.550;2022-07-21T12:54:02;3.60;;;2.35;;
37065;SDS011;22981;43.080;25.550;2022-07-21T12:56:31;15.88;;;2.58;;
37065;SDS011;22981;43.080;25.550;2022-07-21T12:59:00;7.70;;;2.42;;
37065;SDS011;22981;43.080;25.550;2022-07-21T13:01:29;6.17;;;2.83;;
37065;SDS011;22981;43.080;25.550;2022-07-21T13:03:59;3.35;;;2.15;;
37065;SDS011;22981;43.080;25.550;2022-07-21T13:06:28;5.87;;;2.22;;
37065;SDS011;22981;43.080;25.550;2022-07-21T13:08:55;6.70;;;2.22;;
37065;SDS011;22981;43.080;25.550;2022-07-21T13:11:23;4.35;;;2.50;;
37065;SDS011;22981;43.080;25.550;2022-07-21T13:13:51;3.52;;;2.22;;
37065;SDS011;22981;43.080;25.550;2022-07-21T13:16:19;5.90;;;2.45;;
37065;SDS011;22981;43.080;25.550;2022-07-21T13:18:47;4.70;;;2.40;;
37065;SDS011;22981;43.080;25.550;2022-07-21T13:21:15;16.52;;;2.95;;
37065;SDS011;22981;43.080;25.550;2022-07-21T13:23:43;4.20;;;2.52;;
37065;SDS011;22981;43.080;25.550;2022-07-21T13:26:10;4.42;;;2.27;;
37065;SDS011;22981;43.080;25.550;2022-07-21T13:28:38;13.40;;;2.75;;
37065;SDS011;22981;43.080;25.550;2022-07-21T13:31:05;3.70;;;2.02;;
37065;SDS011;22981;43.080;25.550;2022-07-21T13:33:35;4.50;;;2.25;;
37065;SDS011;22981;43.080;25.550;2022-07-21T13:36:03;5.78;;;2.30;;
37065;SDS011;22981;43.080;25.550;2022-07-21T13:38:33;3.75;;;2.40;;
37065;SDS011;22981;43.080;25.550;2022-07-21T13:41:00;3.83;;;2.35;;
37065;SDS011;22981;43.080;25.550;2022-07-21T13:43:28;4.30;;;2.37;;
37065;SDS011;22981;43.080;25.550;2022-07-21T13:45:56;4.35;;;2.02;;
37065;SDS011;22981;43.080;25.550;2022-07-21T13:48:23;5.25;;;2.45;;
37065;SDS011;22981;43.080;25.550;2022-07-21T13:50:51;6.17;;;2.70;;
37065;SDS011;22981;43.080;25.550;2022-07-21T13:53:19;5.42;;;2.50;;
37065;SDS011;22981;43.080;25.550;2022-07-21T13:55:46;10.78;;;2.65;;
37065;SDS011;22981;43.080;25.550;2022-07-21T13:58:15;4.37;;;2.40;;
37065;SDS011;22981;43.080;25.550;2022-07-21T14:00:43;5.53;;;2.27;;
37065;SDS011;22981;43.080;25.550;2022-07-21T14:03:10;6.28;;;2.42;;
37065;SDS011;22981;43.080;25.550;2022-07-21T14:05:38;5.62;;;2.37;;
37065;SDS011;22981;43.080;25.550;2022-07-21T14:08:05;4.33;;;2.58;;
37065;SDS011;22981;43.080;25.550;2022-07-21T14:10:33;5.30;;;2.52;;
37065;SDS011;22981;43.080;25.550;2022-07-21T14:13:01;4.80;;;2.45;;
37065;SDS011;22981;43.080;25.550;2022-07-21T14:15:29;5.45;;;2.80;;
37065;SDS011;22981;43.080;25.550;2022-07-21T14:17:57;3.75;;;2.55;;
37065;SDS011;22981;43.080;25.550;2022-07-21T14:20:25;4.92;;;2.47;;
37065;SDS011;22981;43.080;25.550;2022-07-21T14:22:53;8.20;;;2.60;;
37065;SDS011;22981;43.080;25.550;2022-07-21T14:25:21;7.33;;;2.50;;
37065;SDS011;22981;43.080;25.550;2022-07-21T14:27:54;5.22;;;2.70;;
37065;SDS011;22981;43.080;25.550;2022-07-21T14:30:24;6.25;;;2.72;;
37065;SDS011;22981;43.080;25.550;2022-07-21T14:32:53;3.98;;;2.50;;
37065;SDS011;22981;43.080;25.550;2022-07-21T14:35:21;5.30;;;2.52;;
37065;SDS011;22981;43.080;25.550;2022-07-21T14:37:50;7.10;;;2.60;;
37065;SDS011;22981;43.080;25.550;2022-07-21T14:40:18;3.90;;;2.52;;
37065;SDS011;22981;43.080;25.550;2022-07-21T14:42:46;4.42;;;2.60;;
37065;SDS011;22981;43.080;25.550;2022-07-21T14:45:17;4.95;;;2.50;;
37065;SDS011;22981;43.080;25.550;2022-07-21T14:47:46;4.65;;;2.70;;
37065;SDS011;22981;43.080;25.550;2022-07-21T14:50:14;8.85;;;3.00;;
37065;SDS011;22981;43.080;25.550;2022-07-21T14:52:42;4.75;;;2.70;;
37065;SDS011;22981;43.080;25.550;2022-07-21T14:55:09;2.55;;;2.35;;
37065;SDS011;22981;43.080;25.550;2022-07-21T14:57:37;8.13;;;2.98;;
37065;SDS011;22981;43.080;25.550;2022-07-21T15:00:05;3.70;;;2.22;;
37065;SDS011;22981;43.080;25.550;2022-07-21T15:02:34;3.72;;;2.42;;
37065;SDS011;22981;43.080;25.550;2022-07-21T15:05:02;5.30;;;2.22;;
37065;SDS011;22981;43.080;25.550;2022-07-21T15:07:30;4.03;;;2.27;;
37065;SDS011;22981;43.080;25.550;2022-07-21T15:09:58;2.65;;;2.35;;
37065;SDS011;22981;43.080;25.550;2022-07-21T15:12:26;5.65;;;3.02;;